Time;durP1;ratioP1;P1;durP2;ratioP2;P2;SDS_P1;SDS_P2;PMS_P1;PMS_P2;Temp;Humidity;BMP_temperature;BMP_pressure;BME280_temperature;BME280_humidity;BME280_pressure;Samples;Min_cycle;Max_cycle;Signal;HPM_P1;HPM_P2
2023/03/16 00:01:34;;;;;;;29.80;16.50;;;;;;;6.92;78.58;99776.20;124747;1099;104181;-75
2023/03/16 00:04:05;;;;;;;30.00;17.77;;;;;;;6.89;78.90;99770.87;124711;1099;104201;-74
2023/03/16 00:06:36;;;;;;;33.63;21.23;;;;;;;6.87;78.66;99775.14;124850;1099;104057;-75
2023/03/16 00:09:08;;;;;;;32.33;18.23;;;;;;;6.83;78.66;99767.20;124699;1099;105543;-76
2023/03/16 00:11:39;;;;;;;28.40;16.80;;;;;;;6.81;78.80;99763.66;124715;1099;104198;-75
2023/03/16 00:14:10;;;;;;;29.17;16.07;;;;;;;6.79;78.59;99764.41;124775;1099;101974;-76
2023/03/16 00:16:42;;;;;;;28.93;14.33;;;;;;;6.78;79.08;99763.53;124724;1099;104303;-75
2023/03/16 00:19:13;;;;;;;25.23;13.93;;;;;;;6.76;78.56;99764.30;124785;1099;101929;-75
2023/03/16 00:21:44;;;;;;;23.97;13.27;;;;;;;6.77;78.21;99766.96;124727;1099;101881;-75
2023/03/16 00:24:17;;;;;;;26.27;13.63;;;;;;;6.78;78.72;99767.88;124391;1099;104200;-75
2023/03/16 00:26:48;;;;;;;25.37;12.77;;;;;;;6.78;78.83;99762.66;124412;1099;104166;-75
2023/03/16 00:29:21;;;;;;;26.13;13.67;;;;;;;6.76;78.99;99761.69;124249;1099;104193;-75
2023/03/16 00:31:52;;;;;;;26.27;13.20;;;;;;;6.72;78.31;99763.30;124742;1099;104237;-75
2023/03/16 00:34:23;;;;;;;27.17;14.10;;;;;;;6.72;78.66;99771.12;124764;1099;104175;-75
2023/03/16 00:36:55;;;;;;;25.97;13.70;;;;;;;6.69;78.31;99770.12;124748;1099;104217;-75
2023/03/16 00:39:26;;;;;;;28.87;15.50;;;;;;;6.69;78.90;99770.12;124812;1099;104179;-74
2023/03/16 00:41:57;;;;;;;27.87;14.70;;;;;;;6.66;78.66;99774.36;124423;1099;102230;-75
2023/03/16 00:44:28;;;;;;;30.03;14.17;;;;;;;6.63;78.52;99779.45;124808;1099;102039;-75
2023/03/16 00:47:00;;;;;;;27.45;14.35;;;;;;;6.61;78.43;99775.91;124791;1099;104277;-75
2023/03/16 00:49:33;;;;;;;26.10;14.10;;;;;;;6.63;78.81;99783.78;124799;1099;104179;-75
2023/03/16 00:52:06;;;;;;;27.50;15.03;;;;;;;6.61;78.35;99788.94;124782;1099;104225;-75
2023/03/16 00:54:38;;;;;;;30.10;16.00;;;;;;;6.60;78.54;99784.54;124374;1099;104160;-75
2023/03/16 00:57:10;;;;;;;26.87;14.10;;;;;;;6.60;78.59;99781.94;124836;1099;104268;-75
2023/03/16 00:59:42;;;;;;;27.00;14.33;;;;;;;6.57;78.60;99781.81;124233;1099;103645;-75
2023/03/16 01:02:15;;;;;;;24.65;12.70;;;;;;;6.55;79.15;99785.20;124895;1099;104201;-76
2023/03/16 01:04:46;;;;;;;23.97;11.17;;;;;;;6.50;78.94;99791.92;124777;1099;104176;-75
2023/03/16 01:07:20;;;;;;;26.97;11.60;;;;;;;6.45;78.87;99787.44;124636;1099;104165;-76
2023/03/16 01:09:51;;;;;;;23.40;11.40;;;;;;;6.45;79.15;99800.47;124735;1099;104269;-76
2023/03/16 01:12:22;;;;;;;22.30;10.73;;;;;;;6.42;79.37;99799.43;124778;1098;104229;-76
2023/03/16 01:14:54;;;;;;;21.13;10.70;;;;;;;6.38;79.11;99802.76;124809;1099;104240;-76
2023/03/16 01:17:25;;;;;;;22.60;10.37;;;;;;;6.32;79.09;99803.38;124757;1099;104336;-75
2023/03/16 01:19:56;;;;;;;23.40;10.97;;;;;;;6.27;78.79;99803.19;124201;1102;104133;-75
2023/03/16 01:22:28;;;;;;;20.43;10.20;;;;;;;6.26;79.07;99801.44;124591;1099;102022;-75
2023/03/16 01:24:59;;;;;;;21.13;9.67;;;;;;;6.22;78.87;99815.14;124756;1099;104169;-75
2023/03/16 01:27:32;;;;;;;23.27;11.03;;;;;;;6.23;79.11;99816.02;124337;1099;104306;-76
2023/03/16 01:30:05;;;;;;;19.90;9.53;;;;;;;6.19;78.65;99817.63;124751;1099;104184;-75
2023/03/16 01:32:36;;;;;;;19.50;8.90;;;;;;;6.21;78.92;99809.87;124323;1099;104414;-75
2023/03/16 01:35:09;;;;;;;21.07;8.87;;;;;;;6.18;79.17;99818.44;124390;1099;104201;-75
2023/03/16 01:37:40;;;;;;;17.87;8.50;;;;;;;6.14;79.19;99816.55;124500;1099;104424;-76
2023/03/16 01:40:19;;;;;;;18.80;8.63;;;;;;;6.08;78.59;99822.38;124311;1099;104248;-75
2023/03/16 01:43:00;;;;;;;20.73;8.43;;;;;;;6.14;79.00;99819.16;124294;1100;102348;-75
2023/03/16 01:46:20;;;;;;;18.77;8.53;;;;;;;6.13;78.73;99829.50;124256;1100;104303;-75
2023/03/16 01:49:02;;;;;;;19.00;8.67;;;;;;;6.11;78.96;99832.05;124243;1102;102139;-75
2023/03/16 01:51:41;;;;;;;16.10;8.00;;;;;;;6.11;78.75;99835.53;124272;1102;101992;-76
2023/03/16 01:54:20;;;;;;;17.53;7.67;;;;;;;6.08;78.67;99831.91;124336;1099;104175;-75
2023/03/16 01:56:58;;;;;;;15.17;7.53;;;;;;;6.05;78.59;99834.39;124309;1102;104330;-76
2023/03/16 01:59:34;;;;;;;18.13;8.03;;;;;;;6.02;78.53;99835.13;124300;1099;104675;-75
2023/03/16 02:02:06;;;;;;;18.40;7.50;;;;;;;6.01;78.72;99830.73;124332;1102;104191;-76
2023/03/16 02:04:44;;;;;;;18.00;7.50;;;;;;;6.00;78.64;99825.46;124313;1099;104334;-75
2023/03/16 02:07:17;;;;;;;17.07;7.83;;;;;;;6.00;78.60;99831.58;124280;1102;104220;-75
2023/03/16 02:09:53;;;;;;;19.40;8.37;;;;;;;5.99;78.77;99821.09;124386;1099;104166;-76
2023/03/16 02:12:24;;;;;;;18.17;7.30;;;;;;;5.95;78.50;99825.23;124436;1099;104197;-76
2023/03/16 02:14:58;;;;;;;17.45;7.70;;;;;;;5.93;79.11;99824.28;124253;1099;104226;-76
2023/03/16 02:17:31;;;;;;;20.60;7.87;;;;;;;5.90;78.58;99824.15;124306;1099;104241;-75
2023/03/16 02:20:24;;;;;;;17.30;7.80;;;;;;;5.85;78.47;99828.27;124331;1102;101897;-75
2023/03/16 02:22:57;;;;;;;18.73;7.43;;;;;;;5.82;78.31;99842.03;124281;1099;119061;-74
2023/03/16 02:25:40;;;;;;;17.40;7.25;;;;;;;5.81;78.48;99824.63;124229;1099;104273;-76
2023/03/16 02:28:17;;;;;;;14.87;6.77;;;;;;;5.78;77.91;99818.41;124307;1102;104322;-75
2023/03/16 02:30:50;;;;;;;17.95;7.35;;;;;;;5.75;77.97;99822.66;124306;1102;104309;-75
2023/03/16 02:33:22;;;;;;;16.03;6.93;;;;;;;5.75;78.22;99820.06;124272;1102;102813;-76
2023/03/16 02:35:54;;;;;;;14.97;6.87;;;;;;;5.70;78.13;99824.18;124370;1099;104303;-75
2023/03/16 02:38:26;;;;;;;13.33;6.53;;;;;;;5.67;78.16;99821.44;124336;1099;102871;-76
2023/03/16 02:41:10;;;;;;;16.23;7.10;;;;;;;5.66;78.22;99834.39;124386;1099;104195;-77
2023/03/16 02:43:45;;;;;;;16.67;7.05;;;;;;;5.62;78.38;99827.25;124361;1099;110825;-75
2023/03/16 02:46:28;;;;;;;14.40;6.27;;;;;;;5.58;78.15;99823.63;124274;1099;104238;-76
2023/03/16 02:49:04;;;;;;;16.77;7.10;;;;;;;5.59;77.72;99833.20;124515;1099;102566;-76
2023/03/16 02:51:35;;;;;;;15.00;6.67;;;;;;;5.60;78.06;99831.51;124518;1099;104204;-75
2023/03/16 02:54:07;;;;;;;15.87;6.50;;;;;;;5.61;77.77;99844.59;124518;1099;101920;-74
2023/03/16 02:56:38;;;;;;;13.65;6.90;;;;;;;5.61;77.96;99841.08;124453;1099;104210;-75
2023/03/16 02:59:10;;;;;;;13.90;6.33;;;;;;;5.59;77.95;99838.41;124772;1099;104297;-76
2023/03/16 03:01:42;;;;;;;14.03;6.67;;;;;;;5.56;77.84;99839.18;124501;1099;101950;-75
2023/03/16 03:04:14;;;;;;;14.57;6.80;;;;;;;5.54;77.49;99843.41;124485;1099;104220;-76
2023/03/16 03:06:45;;;;;;;15.37;6.93;;;;;;;5.52;77.83;99842.45;124414;1099;104201;-75
2023/03/16 03:09:17;;;;;;;13.27;6.30;;;;;;;5.51;77.45;99839.78;124343;1099;103159;-76
2023/03/16 03:11:49;;;;;;;12.43;6.03;;;;;;;5.53;77.48;99843.33;124454;1099;101957;-76
2023/03/16 03:14:20;;;;;;;14.15;6.25;;;;;;;5.50;77.47;99840.59;124556;1099;117987;-75
2023/03/16 03:16:52;;;;;;;13.83;6.30;;;;;;;5.46;77.52;99838.69;124587;1099;104204;-75
2023/03/16 03:19:23;;;;;;;12.20;5.95;;;;;;;5.42;77.49;99837.64;124895;1099;104274;-76
2023/03/16 03:21:55;;;;;;;14.90;6.20;;;;;;;5.42;77.22;99837.64;124560;1099;104198;-76
2023/03/16 03:24:27;;;;;;;11.77;5.90;;;;;;;5.41;77.17;99835.88;124336;1099;104159;-76
2023/03/16 03:26:59;;;;;;;13.07;5.47;;;;;;;5.41;77.06;99851.49;124370;1099;104191;-75
2023/03/16 03:29:33;;;;;;;14.07;5.47;;;;;;;5.38;77.40;99849.63;124455;1099;104073;-76
2023/03/16 03:32:05;;;;;;;10.95;5.35;;;;;;;5.35;77.22;99844.28;124345;1099;102293;-75
2023/03/16 03:34:37;;;;;;;14.63;5.20;;;;;;;5.34;77.24;99852.02;124379;1099;104265;-75
2023/03/16 03:37:09;;;;;;;15.07;6.10;;;;;;;5.30;77.40;99861.40;124367;1099;104210;-75
2023/03/16 03:39:40;;;;;;;12.25;5.40;;;;;;;5.28;77.07;99872.55;124754;1099;104304;-76
2023/03/16 03:42:12;;;;;;;10.77;5.67;;;;;;;5.26;77.23;99874.19;124754;1098;104159;-75
2023/03/16 03:44:43;;;;;;;12.03;5.93;;;;;;;5.24;77.00;99865.44;124530;1099;104219;-75
2023/03/16 03:47:14;;;;;;;15.67;6.10;;;;;;;5.21;76.98;99866.17;124335;1099;101928;-75
2023/03/16 03:49:46;;;;;;;11.55;6.00;;;;;;;5.18;76.78;99869.51;124383;1099;101999;-75
2023/03/16 03:52:17;;;;;;;11.67;5.80;;;;;;;5.18;77.18;99863.42;124563;1099;104239;-75
2023/03/16 03:54:48;;;;;;;11.43;5.67;;;;;;;5.22;77.03;99862.77;124741;1099;101964;-75
2023/03/16 03:57:22;;;;;;;12.13;5.87;;;;;;;5.22;76.65;99855.84;124927;1099;104207;-76
2023/03/16 03:59:53;;;;;;;13.43;6.47;;;;;;;5.20;77.17;99859.17;124427;1099;102250;-75
2023/03/16 04:02:43;;;;;;;10.93;5.57;;;;;;;5.17;77.05;99856.43;124826;1099;104198;-75
2023/03/16 04:05:26;;;;;;;10.10;5.40;;;;;;;5.13;77.13;99857.13;124377;1099;118584;-75
2023/03/16 04:07:57;;;;;;;13.23;5.77;;;;;;;5.09;77.05;99844.78;124377;1099;104191;-75
2023/03/16 04:10:30;;;;;;;11.73;5.83;;;;;;;5.07;76.51;99849.92;124652;1099;104245;-76
2023/03/16 04:13:02;;;;;;;11.20;5.53;;;;;;;5.05;76.62;99854.16;124557;1099;102188;-77
2023/03/16 04:15:37;;;;;;;11.97;5.90;;;;;;;5.02;76.77;99849.70;124819;1099;104271;-75
2023/03/16 04:18:15;;;;;;;15.27;6.33;;;;;;;5.01;76.97;99860.02;124519;1099;104322;-77
2023/03/16 04:20:48;;;;;;;11.53;6.03;;;;;;;4.95;76.85;99849.33;124571;1099;102559;-78
2023/03/16 04:23:23;;;;;;;13.63;6.27;;;;;;;4.92;77.06;99855.27;124888;1099;104328;-75
2023/03/16 04:25:55;;;;;;;13.53;5.83;;;;;;;4.89;76.88;99862.91;124290;1099;111976;-76
2023/03/16 04:28:26;;;;;;;12.47;5.73;;;;;;;4.86;77.06;99866.28;124383;1099;104254;-75
2023/03/16 04:31:04;;;;;;;14.50;6.30;;;;;;;4.86;76.76;99862.77;124443;1099;104354;-75
2023/03/16 04:33:41;;;;;;;15.07;6.47;;;;;;;4.85;77.16;99874.88;124356;1099;104271;-75
2023/03/16 04:36:12;;;;;;;13.20;6.08;;;;;;;4.86;77.30;99878.37;124589;1099;104182;-75
2023/03/16 04:38:45;;;;;;;14.07;5.87;;;;;;;4.87;76.74;99880.16;124385;1099;104231;-76
2023/03/16 04:41:16;;;;;;;16.23;6.60;;;;;;;4.87;77.18;99882.76;124520;1099;102438;-76
2023/03/16 04:43:54;;;;;;;13.50;6.27;;;;;;;4.88;76.91;99887.16;124368;1102;101939;-74
2023/03/16 04:46:28;;;;;;;12.10;6.10;;;;;;;4.87;76.60;99893.16;124294;1099;108273;-75
2023/03/16 04:49:01;;;;;;;13.60;6.40;;;;;;;4.91;77.17;99894.19;124311;1099;104240;-76
2023/03/16 04:51:32;;;;;;;15.53;6.70;;;;;;;4.90;77.00;99902.83;124301;1099;104182;-75
2023/03/16 04:54:14;;;;;;;14.30;6.30;;;;;;;4.89;76.63;99896.72;124317;1099;104233;-75
2023/03/16 04:56:47;;;;;;;13.27;6.20;;;;;;;4.89;77.14;99899.31;124312;1099;119059;-78
2023/03/16 04:59:30;;;;;;;15.70;6.87;;;;;;;4.93;76.84;99903.86;124715;1099;104361;-76
2023/03/16 05:02:11;;;;;;;14.33;6.27;;;;;;;4.94;77.15;99905.66;124323;1099;104208;-75
2023/03/16 05:04:42;;;;;;;14.93;7.07;;;;;;;4.99;76.69;99911.95;124328;1102;104280;-76
2023/03/16 05:07:15;;;;;;;12.80;5.67;;;;;;;5.04;76.66;99913.06;124470;1099;104220;-75
2023/03/16 05:09:51;;;;;;;15.57;6.93;;;;;;;5.06;76.72;99914.86;124485;1099;104162;-77
2023/03/16 05:12:22;;;;;;;18.00;8.10;;;;;;;5.06;76.95;99914.86;124270;1099;104223;-77
2023/03/16 05:14:57;;;;;;;19.97;7.70;;;;;;;5.08;76.94;99921.01;124369;1099;104181;-77
2023/03/16 05:17:40;;;;;;;18.33;7.97;;;;;;;5.11;76.68;99915.95;124468;1099;111968;-77
2023/03/16 05:20:14;;;;;;;18.60;7.27;;;;;;;5.14;76.69;99922.22;124450;1099;102495;-76
2023/03/16 05:22:48;;;;;;;16.17;7.17;;;;;;;5.20;76.68;99919.00;124395;1099;104239;-76
2023/03/16 05:25:24;;;;;;;18.03;7.53;;;;;;;5.22;76.43;99927.80;124626;1099;102006;-78
2023/03/16 05:27:58;;;;;;;20.20;7.90;;;;;;;5.26;76.54;99924.50;124422;1099;104338;-78
2023/03/16 05:30:45;;;;;;;19.03;7.57;;;;;;;5.31;76.79;99929.92;124413;1100;101944;-76
2023/03/16 05:33:18;;;;;;;19.47;8.27;;;;;;;5.31;76.53;99941.20;124490;1099;104297;-77
2023/03/16 05:35:53;;;;;;;21.00;8.53;;;;;;;5.35;76.55;99935.34;124383;1099;104243;-75
2023/03/16 05:38:26;;;;;;;18.63;7.77;;;;;;;5.43;76.61;99946.11;124348;1099;104240;-76
2023/03/16 05:41:00;;;;;;;19.60;8.47;;;;;;;5.48;76.58;99949.81;124651;1099;104172;-76
2023/03/16 05:43:55;;;;;;;20.27;8.63;;;;;;;5.47;76.27;99939.34;124458;1099;103591;-76
2023/03/16 05:46:28;;;;;;;20.10;8.80;;;;;;;5.48;76.25;99938.53;124362;1099;102243;-75
2023/03/16 05:49:00;;;;;;;19.70;8.77;;;;;;;5.56;76.31;99945.89;124659;1099;104319;-75
2023/03/16 05:51:31;;;;;;;19.40;8.80;;;;;;;5.61;76.25;99947.79;124716;1099;104249;-78
2023/03/16 05:54:04;;;;;;;23.20;10.03;;;;;;;5.68;76.50;99952.48;124640;1099;104178;-77
2023/03/16 05:56:47;;;;;;;23.43;9.83;;;;;;;5.71;76.70;99948.29;124445;1099;104172;-76
2023/03/16 05:59:19;;;;;;;25.33;9.53;;;;;;;5.78;76.27;99958.98;124526;1099;104281;-76
2023/03/16 06:01:55;;;;;;;23.03;9.33;;;;;;;5.82;76.17;99956.59;124712;1099;102194;-75
2023/03/16 06:04:27;;;;;;;23.27;9.30;;;;;;;5.86;76.07;99957.63;124742;1099;102053;-76
2023/03/16 06:06:58;;;;;;;21.87;9.17;;;;;;;5.84;76.17;99965.36;124598;1099;104243;-76
2023/03/16 06:09:31;;;;;;;22.43;9.93;;;;;;;5.83;75.72;99975.70;124778;1099;104198;-74
2023/03/16 06:12:13;;;;;;;24.13;9.50;;;;;;;5.80;75.66;99978.16;124553;1099;104291;-76
2023/03/16 06:14:46;;;;;;;;;;;;;;;5.78;75.78;99983.34;124760;1099;104262;-81
2023/03/16 06:17:18;;;;;;;21.93;9.20;;;;;;;5.76;76.15;99980.66;124828;1099;104336;-74
2023/03/16 06:19:51;;;;;;;19.50;8.57;;;;;;;5.76;75.83;99988.47;124275;1099;102444;-75
2023/03/16 06:22:24;;;;;;;24.18;10.23;;;;;;;5.79;75.83;99992.03;124671;1099;104268;-73
2023/03/16 06:24:56;;;;;;;23.07;9.53;;;;;;;5.80;75.46;99997.30;124596;1099;104181;-73
2023/03/16 06:27:27;;;;;;;22.07;9.17;;;;;;;5.84;75.69;99987.91;124705;1099;104264;-71
2023/03/16 06:30:11;;;;;;;26.20;10.30;;;;;;;5.85;75.78;99992.31;124998;1099;104233;-79
2023/03/16 06:32:44;;;;;;;29.07;10.30;;;;;;;5.82;75.63;99999.98;125301;1099;102793;-77
2023/03/16 06:35:16;;;;;;;26.27;10.60;;;;;;;5.84;75.55;100006.14;124170;1100;104331;-74
2023/03/16 06:37:52;;;;;;;24.70;10.10;;;;;;;5.83;75.82;100004.34;124308;1102;101975;-76
2023/03/16 06:40:51;;;;;;;23.25;9.75;;;;;;;5.86;75.87;100004.49;124786;1099;104287;-72
2023/03/16 06:43:24;;;;;;;24.70;9.70;;;;;;;5.89;75.51;100004.63;125106;1099;103191;-74
2023/03/16 06:45:57;;;;;;;25.93;10.83;;;;;;;5.92;75.63;100012.59;125310;1099;102707;-75
2023/03/16 06:48:29;;;;;;;24.90;10.43;;;;;;;5.93;75.47;100012.66;124689;1099;104169;-71
2023/03/16 06:51:01;;;;;;;26.50;10.20;;;;;;;5.93;75.51;100015.27;124814;1099;103408;-71
2023/03/16 06:53:33;;;;;;;27.90;10.53;;;;;;;5.99;75.68;100014.70;124825;1102;102916;-76
2023/03/16 06:56:05;;;;;;;25.20;9.50;;;;;;;6.01;75.43;100017.38;124884;1099;104169;-74
2023/03/16 06:58:40;;;;;;;29.55;10.80;;;;;;;6.00;75.51;100018.19;124843;1102;104073;-75
2023/03/16 07:01:12;;;;;;;26.17;10.83;;;;;;;6.02;75.40;100020.05;125027;1099;102441;-76
2023/03/16 07:03:44;;;;;;;26.30;11.00;;;;;;;6.01;75.47;100015.66;124760;1101;104259;-77
2023/03/16 07:06:24;;;;;;;22.90;9.90;;;;;;;6.02;75.35;100022.66;124065;1102;104166;-71
2023/03/16 07:09:05;;;;;;;29.47;10.97;;;;;;;5.89;75.51;100005.55;124116;1099;104386;-72
2023/03/16 07:11:38;;;;;;;25.00;10.03;;;;;;;5.97;75.59;100021.56;124175;1102;104118;-72
2023/03/16 07:14:12;;;;;;;28.10;10.43;;;;;;;5.97;75.64;100024.17;124464;1099;104172;-74
2023/03/16 07:16:44;;;;;;;27.37;10.13;;;;;;;5.99;75.34;100021.64;124104;1099;104319;-73
2023/03/16 07:19:17;;;;;;;27.07;10.00;;;;;;;6.01;75.53;100014.77;124092;1102;104191;-72
2023/03/16 07:21:50;;;;;;;27.00;10.83;;;;;;;6.06;75.50;100035.02;124048;1102;101966;-72
2023/03/16 07:24:23;;;;;;;29.60;11.73;;;;;;;6.11;75.59;100023.08;124127;1102;104139;-71
2023/03/16 07:26:55;;;;;;;26.63;11.03;;;;;;;6.20;75.82;100029.53;124102;1102;104248;-73
2023/03/16 07:29:35;;;;;;;30.93;12.30;;;;;;;6.25;75.66;100030.66;124107;1102;104217;-75
2023/03/16 07:32:08;;;;;;;32.20;12.60;;;;;;;6.33;75.75;100034.48;124110;1099;104242;-72
2023/03/16 07:34:43;;;;;;;26.30;11.03;;;;;;;6.29;75.58;100017.83;124093;1102;104453;-72
2023/03/16 07:37:15;;;;;;;28.67;11.93;;;;;;;6.39;75.72;100034.77;124096;1102;104236;-72
2023/03/16 07:39:50;;;;;;;28.97;11.40;;;;;;;6.46;75.45;100026.38;124107;1100;104306;-71
2023/03/16 07:42:24;;;;;;;26.50;11.13;;;;;;;6.45;75.54;100026.30;124099;1102;101897;-73
2023/03/16 07:45:07;;;;;;;27.23;11.27;;;;;;;6.45;75.70;100019.40;124155;1102;104334;-71
2023/03/16 07:47:41;;;;;;;27.20;11.33;;;;;;;6.47;75.70;100033.37;124078;1099;102064;-72
2023/03/16 07:50:24;;;;;;;29.37;11.00;;;;;;;6.45;75.62;100029.83;124111;1099;104174;-74
2023/03/16 07:53:00;;;;;;;28.60;11.90;;;;;;;6.44;75.42;100034.97;124082;1099;104277;-72
2023/03/16 07:55:35;;;;;;;27.97;11.97;;;;;;;6.48;75.72;100043.00;124145;1099;104169;-73
2023/03/16 07:58:09;;;;;;;29.48;12.78;;;;;;;6.55;75.44;100032.84;124084;1099;104248;-70
2023/03/16 08:00:43;;;;;;;31.67;12.37;;;;;;;6.60;75.41;100044.36;124099;1099;104107;-71
2023/03/16 08:03:21;;;;;;;31.57;12.83;;;;;;;6.68;75.74;100036.87;124068;1099;104240;-70
2023/03/16 08:05:54;;;;;;;30.87;12.07;;;;;;;6.76;75.61;100043.30;124049;1099;101967;-70
2023/03/16 08:08:27;;;;;;;28.80;11.80;;;;;;;6.79;75.41;100046.96;124151;1102;104252;-74
2023/03/16 08:11:00;;;;;;;28.70;11.40;;;;;;;6.75;75.41;100050.25;124121;1099;104204;-71
2023/03/16 08:13:43;;;;;;;29.00;11.40;;;;;;;6.70;75.02;100040.42;124082;1100;104214;-73
2023/03/16 08:16:16;;;;;;;32.57;12.50;;;;;;;6.72;75.28;100047.50;124121;1099;104281;-73
2023/03/16 08:18:50;;;;;;;28.57;12.43;;;;;;;6.72;75.13;100057.94;124117;1099;104235;-72
2023/03/16 08:21:31;;;;;;;29.60;12.53;;;;;;;6.67;75.24;100054.24;124178;1099;104258;-72
2023/03/16 08:24:03;;;;;;;28.00;12.63;;;;;;;6.65;75.24;100063.69;124158;1099;104172;-75
2023/03/16 08:26:37;;;;;;;30.93;11.47;;;;;;;6.66;75.16;100073.31;124159;1102;104249;-74
2023/03/16 08:29:09;;;;;;;28.20;12.07;;;;;;;6.66;75.03;100066.37;124051;1102;102936;-71
2023/03/16 08:31:42;;;;;;;29.13;13.23;;;;;;;6.74;74.92;100077.14;124157;1102;102031;-73
2023/03/16 08:34:27;;;;;;;26.17;10.40;;;;;;;6.75;74.77;100081.54;124114;1099;104271;-73
2023/03/16 08:37:00;;;;;;;26.27;10.87;;;;;;;6.72;75.13;100081.41;124202;1099;104317;-72
2023/03/16 08:39:34;;;;;;;25.47;11.43;;;;;;;6.69;74.99;100083.88;124186;1099;104248;-73
2023/03/16 08:42:09;;;;;;;25.67;10.73;;;;;;;6.60;74.76;100080.85;124693;1099;104319;-70
2023/03/16 08:44:47;;;;;;;28.13;12.27;;;;;;;6.56;74.70;100084.13;124077;1099;102816;-69
2023/03/16 08:47:19;;;;;;;31.33;11.80;;;;;;;6.55;74.92;100092.80;124163;1099;104293;-70
2023/03/16 08:50:01;;;;;;;27.20;11.80;;;;;;;6.54;75.19;100091.00;124283;1098;104287;-73
2023/03/16 08:52:35;;;;;;;27.27;10.80;;;;;;;6.58;75.20;100100.76;124933;1099;101859;-73
2023/03/16 08:55:10;;;;;;;25.87;11.60;;;;;;;6.54;75.12;100102.31;124668;1098;104169;-71
2023/03/16 08:57:44;;;;;;;27.20;10.77;;;;;;;6.53;75.04;100099.64;124678;1098;104274;-75
2023/03/16 09:00:21;;;;;;;27.97;11.13;;;;;;;6.46;75.20;100104.57;124611;1098;104195;-75
2023/03/16 09:02:55;;;;;;;27.58;10.85;;;;;;;6.47;74.99;100116.79;124274;1099;104203;-74
2023/03/16 09:05:28;;;;;;;33.50;11.30;;;;;;;6.49;75.05;100119.47;124132;1099;104078;-73
2023/03/16 09:08:05;;;;;;;25.53;10.03;;;;;;;6.48;74.97;100122.89;124203;1099;103501;-73
2023/03/16 09:10:36;;;;;;;23.40;9.90;;;;;;;6.40;74.89;100121.65;124140;1099;104172;-73
2023/03/16 09:13:09;;;;;;;23.97;10.17;;;;;;;6.36;75.34;100130.13;124556;1099;102591;-73
2023/03/16 09:15:41;;;;;;;23.43;9.27;;;;;;;6.30;75.18;100121.22;124976;1098;104245;-73
2023/03/16 09:18:18;;;;;;;24.07;9.97;;;;;;;6.29;75.53;100128.97;124610;1098;103551;-70
2023/03/16 09:20:50;;;;;;;23.10;9.50;;;;;;;6.26;75.56;100128.82;124679;1099;103967;-72
2023/03/16 09:23:25;;;;;;;21.47;8.97;;;;;;;6.25;75.47;100134.88;125230;1098;102162;-73
2023/03/16 09:26:00;;;;;;;23.50;9.97;;;;;;;6.23;75.66;100146.91;124260;1099;102096;-74
2023/03/16 09:28:32;;;;;;;23.50;9.23;;;;;;;6.20;75.50;100137.27;125061;1099;104243;-72
2023/03/16 09:31:05;;;;;;;20.63;8.57;;;;;;;6.25;75.30;100140.09;125566;1099;104245;-72
2023/03/16 09:33:37;;;;;;;22.33;9.80;;;;;;;6.22;75.84;100142.55;124624;1099;102751;-72
2023/03/16 09:36:10;;;;;;;20.93;8.63;;;;;;;6.19;75.41;100143.28;124646;1099;104169;-71
2023/03/16 09:38:43;;;;;;;21.17;9.10;;;;;;;6.16;75.75;100147.47;124616;1099;104188;-72
2023/03/16 09:41:40;;;;;;;20.23;9.17;;;;;;;6.08;76.08;100154.91;124617;1099;102242;-71
2023/03/16 09:44:28;;;;;;;24.83;9.13;;;;;;;6.05;75.82;100157.37;124150;1102;108157;-70
2023/03/16 09:47:02;;;;;;;25.30;9.73;;;;;;;6.03;75.72;100145.95;124602;1099;104248;-72
2023/03/16 09:49:41;;;;;;;25.37;9.57;;;;;;;6.07;76.21;100148.78;124604;1098;104277;-72
2023/03/16 09:52:29;;;;;;;19.30;8.43;;;;;;;6.05;76.18;100147.83;124659;1099;101820;-75
2023/03/16 09:55:09;;;;;;;20.87;8.40;;;;;;;6.04;75.81;100161.66;124256;1099;104415;-74
2023/03/16 09:57:57;;;;;;;23.37;8.90;;;;;;;6.00;76.12;100154.54;124549;1099;104082;-71
2023/03/16 10:00:47;;;;;;;23.67;8.40;;;;;;;6.01;76.39;100161.52;124541;1098;104285;-74
2023/03/16 10:03:45;;;;;;;21.53;9.00;;;;;;;6.01;75.99;100161.52;124641;1099;104176;-75
2023/03/16 10:06:21;;;;;;;19.17;9.03;;;;;;;6.06;76.00;100164.34;124694;1099;104245;-74
2023/03/16 10:09:06;;;;;;;20.20;8.80;;;;;;;6.10;76.39;100163.68;124855;1099;104277;-78
2023/03/16 10:11:41;;;;;;;19.20;7.97;;;;;;;6.10;76.06;100164.56;124586;1099;104249;-74
2023/03/16 10:14:21;;;;;;;19.33;8.00;;;;;;;6.10;75.90;100167.17;124175;1099;104233;-72
2023/03/16 10:17:01;;;;;;;20.00;8.43;;;;;;;6.10;76.10;100156.75;124564;1099;102449;-73
2023/03/16 10:19:40;;;;;;;21.27;8.70;;;;;;;6.15;76.08;100159.58;124616;1099;104165;-72
2023/03/16 10:22:20;;;;;;;20.87;9.33;;;;;;;6.22;76.16;100155.58;124616;1099;104309;-73
2023/03/16 10:25:01;;;;;;;21.33;8.23;;;;;;;6.22;75.92;100159.06;124569;1099;104172;-73
2023/03/16 10:27:37;;;;;;;17.73;8.07;;;;;;;6.19;76.17;100160.64;124240;1099;102037;-73
2023/03/16 10:30:27;;;;;;;20.17;8.90;;;;;;;6.19;75.83;100160.64;124630;1099;102036;-72
2023/03/16 10:33:04;;;;;;;21.73;8.40;;;;;;;6.22;75.92;100166.00;124597;1099;103642;-73
2023/03/16 10:35:47;;;;;;;22.23;8.67;;;;;;;6.21;75.85;100159.87;124570;1099;117861;-73
2023/03/16 10:38:37;;;;;;;21.65;8.65;;;;;;;6.21;75.53;100172.02;124575;1099;104081;-72
2023/03/16 10:41:24;;;;;;;21.93;8.70;;;;;;;6.23;75.61;100165.16;124645;1099;104347;-72
2023/03/16 10:43:58;;;;;;;20.57;8.80;;;;;;;6.23;75.33;100175.58;124565;1099;104264;-72
2023/03/16 10:46:39;;;;;;;19.67;8.30;;;;;;;6.17;75.44;100173.59;125174;1102;104239;-71
2023/03/16 10:49:24;;;;;;;18.77;7.90;;;;;;;6.17;75.30;100172.67;124620;1099;104311;-71
2023/03/16 10:52:06;;;;;;;20.13;8.83;;;;;;;6.18;75.09;100167.54;124255;1101;104072;-75
2023/03/16 10:54:49;;;;;;;22.93;8.40;;;;;;;6.21;75.25;100172.02;124709;1098;104226;-76
2023/03/16 10:57:36;;;;;;;19.10;8.40;;;;;;;6.20;75.34;100178.03;125128;1099;101883;-74
2023/03/16 11:00:20;;;;;;;20.40;8.33;;;;;;;6.16;75.13;100174.39;124685;1098;104169;-72
2023/03/16 11:02:54;;;;;;;20.50;7.97;;;;;;;6.12;75.32;100175.06;124606;1099;103351;-73
2023/03/16 11:05:32;;;;;;;22.13;8.70;;;;;;;6.07;75.36;100167.02;124178;1102;104358;-72
2023/03/16 11:08:12;;;;;;;23.10;8.77;;;;;;;6.04;75.18;100160.78;124403;1102;104367;-76
2023/03/16 11:10:47;;;;;;;20.83;8.10;;;;;;;6.03;75.44;100166.80;125011;1099;103277;-74
2023/03/16 11:13:23;;;;;;;20.83;9.13;;;;;;;6.02;75.35;100173.73;125475;1099;104187;-76
2023/03/16 11:16:01;;;;;;;21.57;8.27;;;;;;;6.02;75.33;100168.52;125014;1099;104361;-72
2023/03/16 11:18:45;;;;;;;23.13;8.30;;;;;;;5.99;75.23;100160.55;124529;1099;104376;-72
2023/03/16 11:21:25;;;;;;;20.10;7.53;;;;;;;6.05;75.39;100158.25;124569;1099;104220;-70
2023/03/16 11:23:58;;;;;;;22.93;8.33;;;;;;;6.03;74.97;100165.11;125416;1099;104692;-77
2023/03/16 11:26:35;;;;;;;18.40;7.25;;;;;;;6.07;75.30;100171.34;124978;1099;104239;-72
2023/03/16 11:29:25;;;;;;;20.15;7.70;;;;;;;6.14;75.14;100167.31;124728;1099;104176;-72
2023/03/16 11:32:06;;;;;;;19.80;8.23;;;;;;;6.19;75.27;100165.84;124821;1099;104348;-71
2023/03/16 11:34:42;;;;;;;22.07;8.10;;;;;;;6.21;74.71;100161.59;125030;1102;103521;-75
2023/03/16 11:37:31;;;;;;;21.90;7.87;;;;;;;6.23;74.81;100168.67;124295;1099;104214;-72
2023/03/16 11:40:14;;;;;;;19.13;7.40;;;;;;;6.25;74.72;100169.63;124205;1099;104259;-73
2023/03/16 11:42:59;;;;;;;19.60;7.33;;;;;;;6.23;74.60;100170.36;124164;1099;104182;-76
2023/03/16 11:45:37;;;;;;;13.93;6.10;;;;;;;6.21;74.74;100178.11;124374;1099;104402;-73
2023/03/16 11:48:24;;;;;;;18.33;6.77;;;;;;;6.23;74.47;100181.70;124302;1099;104198;-73
2023/03/16 11:51:09;;;;;;;17.97;6.87;;;;;;;6.26;74.43;100193.96;124591;1099;102176;-74